createdAt,value
2022-11-06T00:00:03.797Z,4.64
2022-11-06T00:01:03.937Z,4.72
2022-11-06T00:02:04.212Z,4.72
2022-11-06T00:03:04.330Z,4.8
2022-11-06T00:04:04.351Z,4.72
2022-11-06T00:05:04.503Z,4.48
2022-11-06T00:06:04.653Z,4.4
2022-11-06T00:07:04.814Z,4.48
2022-11-06T00:08:04.954Z,4.4
2022-11-06T00:09:05.109Z,4.16
2022-11-06T00:10:05.264Z,4.32
2022-11-06T00:11:05.353Z,4.4
2022-11-06T00:12:05.525Z,4.48
2022-11-06T00:13:05.614Z,4.64
2022-11-06T00:14:05.772Z,4.64
2022-11-06T00:15:05.922Z,4.72
2022-11-06T00:16:06.054Z,4.4
2022-11-06T00:17:06.160Z,4.16
2022-11-06T00:18:06.335Z,4.08
2022-11-06T00:19:06.462Z,3.68
2022-11-06T00:20:06.636Z,3.52
2022-11-06T00:21:06.785Z,4
2022-11-06T00:22:06.932Z,4.16
2022-11-06T00:23:07.036Z,4
2022-11-06T00:24:07.182Z,4
2022-11-06T00:25:07.325Z,4
2022-11-06T00:26:07.485Z,3.92
2022-11-06T00:27:07.588Z,4.08
2022-11-06T00:28:07.746Z,4.08
2022-11-06T00:29:07.849Z,4.4
2022-11-06T00:30:07.999Z,4.4
2022-11-06T00:31:08.084Z,4.48
2022-11-06T00:32:08.242Z,4.48
2022-11-06T00:33:08.396Z,4.64
2022-11-06T00:34:08.590Z,4.48
2022-11-06T00:35:08.727Z,4.48
2022-11-06T00:36:08.846Z,4.64
2022-11-06T00:37:09.000Z,4.64
2022-11-06T00:38:09.210Z,4.48
2022-11-06T00:39:09.314Z,4.48
2022-11-06T00:40:09.458Z,4.4
2022-11-06T00:41:09.554Z,4.08
2022-11-06T00:42:09.714Z,4.32
2022-11-06T00:43:09.836Z,4.48
2022-11-06T00:44:09.987Z,4.48
2022-11-06T00:45:10.125Z,4.32
2022-11-06T00:46:10.254Z,4
2022-11-06T00:47:10.423Z,3.84
2022-11-06T00:48:10.891Z,3.68
2022-11-06T00:49:10.732Z,3.6
2022-11-06T00:50:10.875Z,4.08
2022-11-06T00:51:11.027Z,4.4
2022-11-06T00:52:11.177Z,4.48
2022-11-06T00:53:11.327Z,4.64
2022-11-06T00:54:11.437Z,4.4
2022-11-06T00:55:11.592Z,4
2022-11-06T00:56:11.691Z,3.92
2022-11-06T00:57:11.836Z,3.68
2022-11-06T00:58:12.124Z,3.52
2022-11-06T00:59:12.090Z,3.92
2022-11-06T01:00:12.244Z,4
2022-11-06T01:01:12.387Z,4.08
2022-11-06T01:02:12.661Z,4.32
2022-11-06T01:03:12.719Z,4.16
2022-11-06T01:04:12.844Z,4.16
2022-11-06T01:05:12.951Z,4.08
2022-11-06T01:06:13.096Z,4
2022-11-06T01:07:13.225Z,4.08
2022-11-06T01:08:13.571Z,4.16
2022-11-06T01:09:13.505Z,4.4
2022-11-06T01:10:13.656Z,4.16
2022-11-06T01:11:13.809Z,4.16
2022-11-06T01:12:14.677Z,4.32
2022-11-06T01:13:14.121Z,4.4
2022-11-06T01:14:14.263Z,4.48
2022-11-06T01:15:14.380Z,4.48
2022-11-06T01:16:14.507Z,4.4
2022-11-06T01:17:14.690Z,4.64
2022-11-06T01:18:15.070Z,4.48
2022-11-06T01:19:14.973Z,4.48
2022-11-06T01:20:15.062Z,4.8
2022-11-06T01:21:15.225Z,4.48
2022-11-06T01:22:15.374Z,4.32
2022-11-06T01:23:15.525Z,4.16
2022-11-06T01:24:15.707Z,4.08
2022-11-06T01:25:15.829Z,4.16
2022-11-06T01:26:24.590Z,3.68
2022-11-06T01:27:27.772Z,3.84
2022-11-06T01:28:16.234Z,4
2022-11-06T01:29:16.401Z,4.16
2022-11-06T01:30:16.546Z,4.32
2022-11-06T01:31:16.682Z,4.4
2022-11-06T01:32:16.798Z,4.4
2022-11-06T01:33:16.952Z,4.4
2022-11-06T01:34:17.056Z,4.32
2022-11-06T01:35:17.204Z,4.08
2022-11-06T01:36:17.359Z,4
2022-11-06T01:37:17.502Z,4
2022-11-06T01:38:17.614Z,3.92
2022-11-06T01:39:17.713Z,3.92
2022-11-06T01:40:17.872Z,4
2022-11-06T01:41:17.993Z,4.16
2022-11-06T01:42:18.096Z,4.08
2022-11-06T01:43:18.261Z,4.08
2022-11-06T01:44:18.368Z,4.32
2022-11-06T01:45:18.521Z,4.48
2022-11-06T01:46:18.640Z,4.64
2022-11-06T01:47:18.726Z,4.48
2022-11-06T01:48:18.829Z,4.4
2022-11-06T01:49:18.968Z,4.48
2022-11-06T01:50:19.124Z,4.64
2022-11-06T01:51:19.278Z,4.64
2022-11-06T01:52:19.424Z,4.64
2022-11-06T01:53:19.579Z,4.8
2022-11-06T01:54:19.742Z,4.8
2022-11-06T01:55:19.887Z,4.72
2022-11-06T01:56:20.030Z,4.72
2022-11-06T01:57:20.188Z,4.48
2022-11-06T01:58:20.338Z,4.48
2022-11-06T01:59:20.492Z,4.48
2022-11-06T02:00:20.636Z,4.48
2022-11-06T02:01:20.829Z,4.48
2022-11-06T02:02:20.979Z,4.32
2022-11-06T02:03:21.050Z,4.64
2022-11-06T02:04:21.208Z,4.64
2022-11-06T02:05:21.355Z,4.72
2022-11-06T02:06:21.501Z,4.64
2022-11-06T02:07:21.653Z,4.64
2022-11-06T02:08:21.800Z,4.48
2022-11-06T02:09:21.958Z,4.64
2022-11-06T02:10:22.106Z,4.72
2022-11-06T02:11:22.263Z,4.64
2022-11-06T02:12:22.744Z,4.4
2022-11-06T02:13:22.893Z,4.48
2022-11-06T02:14:23.055Z,4.32
2022-11-06T02:15:22.825Z,4.08
2022-11-06T02:16:22.950Z,4.32
2022-11-06T02:17:23.069Z,4.32
2022-11-06T02:18:23.218Z,4.32
2022-11-06T02:19:23.368Z,4.08
2022-11-06T02:20:23.520Z,4.08
2022-11-06T02:21:23.638Z,4.16
2022-11-06T02:22:23.781Z,4.32
2022-11-06T02:23:23.920Z,4.32
2022-11-06T02:24:24.086Z,4.32
2022-11-06T02:25:24.231Z,4.4
2022-11-06T02:26:24.384Z,4.16
2022-11-06T02:27:24.535Z,4.32
2022-11-06T02:28:24.688Z,4.4
2022-11-06T02:29:24.839Z,4.32
2022-11-06T02:30:24.997Z,4.4
2022-11-06T02:31:25.127Z,4.4
2022-11-06T02:32:25.295Z,4.4
2022-11-06T02:33:25.441Z,4.64
2022-11-06T02:34:25.601Z,4.32
2022-11-06T02:35:25.747Z,4.08
2022-11-06T02:36:25.904Z,4.16
2022-11-06T02:37:26.005Z,4.08
2022-11-06T02:38:26.157Z,4.08
2022-11-06T02:39:26.302Z,4
2022-11-06T02:40:26.452Z,4
2022-11-06T02:41:26.604Z,4
2022-11-06T02:42:26.716Z,4.08
2022-11-06T02:43:26.862Z,4.32
2022-11-06T02:44:26.946Z,4.4
2022-11-06T02:45:27.127Z,4.48
2022-11-06T02:46:27.248Z,4.32
2022-11-06T02:47:27.371Z,4.48
2022-11-06T02:48:27.501Z,4.48
2022-11-06T02:49:27.676Z,4.16
2022-11-06T02:50:27.852Z,4.16
2022-11-06T02:51:28.079Z,4.32
2022-11-06T02:52:28.170Z,4.16
2022-11-06T02:53:28.327Z,4.16
2022-11-06T02:54:28.486Z,4.16
2022-11-06T02:55:28.628Z,4.16
2022-11-06T02:56:28.732Z,4.08
2022-11-06T02:57:28.883Z,4.32
2022-11-06T02:58:28.984Z,4.4
2022-11-06T02:59:29.141Z,4.4
2022-11-06T03:00:29.321Z,4.48
2022-11-06T03:01:29.525Z,4.4
2022-11-06T03:02:29.597Z,4.4
2022-11-06T03:03:29.695Z,4.16
2022-11-06T03:04:29.847Z,4.4
2022-11-06T03:05:29.993Z,4.32
2022-11-06T03:06:30.140Z,4.32
2022-11-06T03:07:30.297Z,4.4
2022-11-06T03:08:30.450Z,4.08
2022-11-06T03:09:30.549Z,4.08
2022-11-06T03:10:30.707Z,4.4
2022-11-06T03:11:30.857Z,4.16
2022-11-06T03:12:31.007Z,4.32
2022-11-06T03:13:31.160Z,4.48
2022-11-06T03:14:31.311Z,4.64
2022-11-06T03:15:31.465Z,4.48
2022-11-06T03:16:31.604Z,4.8
2022-11-06T03:17:31.767Z,4.72
2022-11-06T03:18:31.869Z,4.72
2022-11-06T03:19:32.022Z,4.48
2022-11-06T03:20:32.154Z,4.16
2022-11-06T03:21:32.315Z,4.4
2022-11-06T03:22:32.470Z,4.64
2022-11-06T03:23:32.581Z,4.64
2022-11-06T03:24:32.724Z,4.64
2022-11-06T03:25:32.882Z,4.64
2022-11-06T03:26:32.980Z,4.8
2022-11-06T03:27:33.217Z,4.8
2022-11-06T03:28:33.378Z,4.88
2022-11-06T03:29:33.574Z,4.64
2022-11-06T03:30:33.739Z,4.64
2022-11-06T03:31:33.871Z,4.64
2022-11-06T03:32:34.048Z,4.8
2022-11-06T03:33:34.192Z,4.8
2022-11-06T03:34:34.340Z,4.64
2022-11-06T03:35:34.496Z,4.64
2022-11-06T03:36:34.643Z,4.72
2022-11-06T03:37:34.803Z,4.48
2022-11-06T03:38:38.278Z,4.48
2022-11-06T03:39:35.050Z,4.64
2022-11-06T03:40:35.204Z,4.64
2022-11-06T03:41:35.300Z,4.48
2022-11-06T03:42:35.468Z,4.64
2022-11-06T03:43:35.613Z,4.64
2022-11-06T03:44:35.762Z,4.64
2022-11-06T03:45:35.894Z,4.4
2022-11-06T03:46:35.999Z,4.4
2022-11-06T03:47:36.110Z,4.32
2022-11-06T03:48:36.265Z,4
2022-11-06T03:49:36.427Z,3.92
2022-11-06T03:50:36.565Z,3.84
2022-11-06T03:51:36.764Z,3.84
2022-11-06T03:52:36.837Z,3.92
2022-11-06T03:53:36.959Z,3.68
2022-11-06T03:54:37.145Z,3.84
2022-11-06T03:55:37.282Z,3.52
2022-11-06T03:56:37.436Z,3.6
2022-11-06T03:57:37.530Z,3.52
2022-11-06T03:58:37.748Z,3.68
2022-11-06T03:59:37.841Z,3.92
2022-11-06T04:00:37.973Z,4
2022-11-06T04:01:38.202Z,4
2022-11-06T04:02:38.398Z,4.08
2022-11-06T04:03:38.445Z,4
2022-11-06T04:04:38.596Z,3.92
2022-11-06T04:05:38.760Z,3.6
2022-11-06T04:06:38.882Z,3.44
2022-11-06T04:07:39.057Z,3.04
2022-11-06T04:08:39.198Z,3.12
2022-11-06T04:09:39.353Z,2.88
2022-11-06T04:10:39.503Z,2.88
2022-11-06T04:11:39.648Z,3.12
2022-11-06T04:12:39.808Z,3.44
2022-11-06T04:13:39.968Z,3.52
2022-11-06T04:14:40.109Z,3.68
2022-11-06T04:15:40.253Z,3.68
2022-11-06T04:16:40.370Z,3.84
2022-11-06T04:17:40.509Z,3.68
2022-11-06T04:18:40.602Z,3.84
2022-11-06T04:19:40.767Z,3.68
2022-11-06T04:20:40.920Z,3.68
2022-11-06T04:21:41.068Z,3.6
2022-11-06T04:22:41.228Z,3.6
2022-11-06T04:23:41.371Z,3.6
2022-11-06T04:24:41.522Z,3.6
2022-11-06T04:25:41.677Z,3.6
2022-11-06T04:26:41.826Z,3.6
2022-11-06T04:27:41.984Z,3.6
2022-11-06T04:28:42.168Z,3.68
2022-11-06T04:29:42.284Z,3.84
2022-11-06T04:30:42.429Z,3.6
2022-11-06T04:31:42.596Z,3.68
2022-11-06T04:32:42.745Z,3.68
2022-11-06T04:33:42.894Z,3.6
2022-11-06T04:34:42.992Z,3.52
2022-11-06T04:35:43.141Z,3.44
2022-11-06T04:36:43.303Z,3.52
2022-11-06T04:37:43.445Z,3.44
2022-11-06T04:38:43.600Z,3.44
2022-11-06T04:39:43.753Z,3.6
2022-11-06T04:40:43.848Z,3.52
2022-11-06T04:41:44.007Z,3.52
2022-11-06T04:42:44.161Z,3.44
2022-11-06T04:43:44.307Z,3.52
2022-11-06T04:44:44.413Z,3.52
2022-11-06T04:45:44.547Z,3.52
2022-11-06T04:46:44.672Z,3.52
2022-11-06T04:47:44.815Z,3.44
2022-11-06T04:48:44.972Z,3.28
2022-11-06T04:49:45.122Z,3.28
2022-11-06T04:50:45.269Z,3.12
2022-11-06T04:51:45.418Z,3.28
2022-11-06T04:52:45.558Z,3.2
2022-11-06T04:53:45.721Z,3.12
2022-11-06T04:54:45.886Z,3.2
2022-11-06T04:55:46.029Z,3.12
2022-11-06T04:56:46.652Z,3.04
2022-11-06T04:57:46.323Z,2.72
2022-11-06T04:58:46.482Z,2.64
2022-11-06T04:59:46.632Z,2.64
2022-11-06T05:00:46.803Z,2.72
2022-11-06T05:01:47.075Z,2.48
2022-11-06T05:02:47.087Z,2.4
2022-11-06T05:03:47.241Z,2.48
2022-11-06T05:04:47.401Z,2.8
2022-11-06T05:05:47.546Z,2.64
2022-11-06T05:06:47.697Z,2.4
2022-11-06T05:07:47.801Z,2.48
2022-11-06T05:08:47.950Z,2.08
2022-11-06T05:09:48.099Z,1.84
2022-11-06T05:10:48.249Z,1.68
2022-11-06T05:11:48.410Z,1.68
2022-11-06T05:12:48.557Z,1.52
2022-11-06T05:13:48.705Z,1.68
2022-11-06T05:14:48.903Z,2
2022-11-06T05:15:48.994Z,1.92
2022-11-06T05:16:49.163Z,1.92
2022-11-06T05:17:49.317Z,1.84
2022-11-06T05:18:49.460Z,1.84
2022-11-06T05:19:49.619Z,1.6
2022-11-06T05:20:49.771Z,2
2022-11-06T05:21:49.879Z,2.08
2022-11-06T05:22:50.024Z,2
2022-11-06T05:23:50.143Z,2
2022-11-06T05:24:50.294Z,2.24
2022-11-06T05:25:50.369Z,2.48
2022-11-06T05:26:53.430Z,2.32
2022-11-06T05:27:50.635Z,2.4
2022-11-06T05:28:50.779Z,2.4
2022-11-06T05:29:50.936Z,2.48
2022-11-06T05:30:51.065Z,2.48
2022-11-06T05:31:51.248Z,2.32
2022-11-06T05:32:51.387Z,2.48
2022-11-06T05:33:51.531Z,2.32
2022-11-06T05:34:51.686Z,2.08
2022-11-06T05:35:51.842Z,2
2022-11-06T05:36:51.941Z,1.6
2022-11-06T05:37:52.048Z,1.68
2022-11-06T05:38:52.213Z,1.28
2022-11-06T05:39:52.352Z,1.52
2022-11-06T05:40:52.510Z,1.2
2022-11-06T05:41:52.643Z,1.12
2022-11-06T05:42:52.741Z,1.44
2022-11-06T05:43:52.904Z,1.28
2022-11-06T05:44:53.003Z,1.44
2022-11-06T05:45:53.145Z,1.52
2022-11-06T05:46:53.348Z,1.52
2022-11-06T05:47:53.462Z,1.92
2022-11-06T05:48:53.579Z,1.52
2022-11-06T05:49:53.710Z,1.6
2022-11-06T05:50:53.864Z,1.2
2022-11-06T05:51:54.022Z,1.12
2022-11-06T05:52:54.178Z,1.44
2022-11-06T05:53:54.326Z,1.6
2022-11-06T05:54:54.494Z,1.2
2022-11-06T05:55:54.575Z,0.88
2022-11-06T05:56:54.737Z,0.8
2022-11-06T05:57:54.878Z,0.72
2022-11-06T05:58:55.030Z,0.8
2022-11-06T05:59:55.178Z,1.12
2022-11-06T06:00:55.322Z,1.04
2022-11-06T06:01:55.695Z,1.2
2022-11-06T06:02:55.726Z,1.04
2022-11-06T06:03:55.787Z,0.88
2022-11-06T06:04:55.964Z,1.04
2022-11-06T06:05:56.100Z,1.04
2022-11-06T06:06:56.267Z,1.04
2022-11-06T06:07:56.402Z,1.2
2022-11-06T06:08:56.547Z,1.2
2022-11-06T06:09:56.698Z,1.44
2022-11-06T06:10:56.847Z,1.2
2022-11-06T06:11:57.038Z,0.72
2022-11-06T06:12:57.167Z,0.64
2022-11-06T06:13:57.319Z,0.72
2022-11-06T06:14:57.459Z,0.72
2022-11-06T06:15:57.593Z,0.88
2022-11-06T06:16:57.774Z,0.8
2022-11-06T06:17:57.956Z,1.12
2022-11-06T06:18:58.069Z,1.2
2022-11-06T06:19:58.229Z,1.84
2022-11-06T06:20:58.365Z,1.12
2022-11-06T06:21:58.520Z,1.12
2022-11-06T06:22:58.668Z,2.24
2022-11-06T06:23:58.779Z,1.92
2022-11-06T06:24:58.943Z,2.08
2022-11-06T06:25:59.088Z,2.64
2022-11-06T06:26:59.232Z,2.64
2022-11-06T06:27:59.391Z,2.08
2022-11-06T06:28:59.535Z,2.4
2022-11-06T06:29:59.666Z,2.8
2022-11-06T06:31:01.618Z,2.64
2022-11-06T06:31:59.918Z,2.24
2022-11-06T06:33:00.088Z,2.08
2022-11-06T06:34:00.232Z,2.4
2022-11-06T06:35:00.327Z,2.88
2022-11-06T06:36:00.423Z,2.72
2022-11-06T06:37:00.592Z,2.24
2022-11-06T06:38:00.764Z,2.72
2022-11-06T06:39:00.876Z,2.8
2022-11-06T06:40:01.045Z,2.72
2022-11-06T06:41:01.192Z,2.88
2022-11-06T06:42:01.353Z,3.2
2022-11-06T06:43:01.500Z,3.04
2022-11-06T06:44:01.654Z,3.2
2022-11-06T06:45:01.817Z,3.12
2022-11-06T06:46:01.944Z,3.04
2022-11-06T06:47:02.049Z,3.28
2022-11-06T06:48:02.166Z,3.12
2022-11-06T06:49:02.307Z,3.2
2022-11-06T06:50:02.422Z,3.68
2022-11-06T06:51:02.574Z,4.16
2022-11-06T06:52:02.725Z,4.48
2022-11-06T06:53:02.873Z,4.8
2022-11-06T06:54:03.026Z,5.12
2022-11-06T06:55:03.124Z,5.6
2022-11-06T06:56:03.269Z,6.08
2022-11-06T06:57:03.371Z,6.4
2022-11-06T06:58:03.532Z,6.48
2022-11-06T06:59:03.682Z,6.8
2022-11-06T07:00:03.785Z,6.88
2022-11-06T07:01:03.935Z,7.84
2022-11-06T07:02:04.181Z,7.52
2022-11-06T07:03:04.227Z,7.2
2022-11-06T07:04:04.694Z,7.2
2022-11-06T07:05:04.637Z,7.04
2022-11-06T07:06:04.780Z,7.12
2022-11-06T07:07:04.932Z,7.52
2022-11-06T07:08:05.194Z,7.44
2022-11-06T07:09:05.290Z,7.6
2022-11-06T07:10:05.393Z,7.6
2022-11-06T07:11:05.545Z,7.6
2022-11-06T07:12:05.698Z,7.44
2022-11-06T07:13:05.849Z,7.52
2022-11-06T07:14:05.997Z,7.68
2022-11-06T07:15:06.151Z,7.2
2022-11-06T07:16:06.287Z,6.64
2022-11-06T07:17:06.463Z,6.24
2022-11-06T07:18:06.557Z,6
2022-11-06T07:19:06.667Z,6.24
2022-11-06T07:20:06.808Z,6.48
2022-11-06T07:21:06.916Z,6.32
2022-11-06T07:22:07.063Z,6.08
2022-11-06T07:23:07.211Z,5.84
2022-11-06T07:24:07.323Z,5.6
2022-11-06T07:25:07.482Z,5.6
2022-11-06T07:26:07.622Z,6.24
2022-11-06T07:27:07.769Z,6.8
2022-11-06T07:28:07.872Z,7.12
2022-11-06T07:29:08.022Z,7.44
2022-11-06T07:30:08.175Z,7.68
2022-11-06T07:31:08.312Z,7.68
2022-11-06T07:32:08.525Z,7.84
2022-11-06T07:33:08.637Z,7.92
2022-11-06T07:34:08.797Z,8.08
2022-11-06T07:35:08.938Z,8.32
2022-11-06T07:36:09.079Z,8.48
2022-11-06T07:37:09.248Z,8.4
2022-11-06T07:38:09.388Z,9.84
2022-11-06T07:39:09.540Z,10.48
2022-11-06T07:40:09.701Z,9.36
2022-11-06T07:41:09.783Z,9.04
2022-11-06T07:42:09.948Z,9.2
2022-11-06T07:43:10.094Z,9.36
2022-11-06T07:44:10.249Z,9.36
2022-11-06T07:45:10.402Z,9.12
2022-11-06T07:46:10.533Z,9.28
2022-11-06T07:47:10.703Z,9.36
2022-11-06T07:48:10.959Z,9.52
2022-11-06T07:49:11.004Z,9.679999
2022-11-06T07:50:11.164Z,9.12
2022-11-06T07:51:11.319Z,9.679999
2022-11-06T07:52:11.458Z,9.84
2022-11-06T07:53:11.941Z,10.08
2022-11-06T07:54:11.765Z,10.32
2022-11-06T07:55:11.921Z,10.48
2022-11-06T07:56:12.072Z,10.24
2022-11-06T07:57:12.223Z,10.4
2022-11-06T07:58:12.583Z,9.92
2022-11-06T07:59:12.517Z,10.88
2022-11-06T08:00:12.676Z,9.92
2022-11-06T08:01:16.873Z,9.92
2022-11-06T08:02:13.083Z,9.84
2022-11-06T08:03:13.084Z,10
2022-11-06T08:04:13.234Z,10.48
2022-11-06T08:05:13.381Z,10.88
2022-11-06T08:06:13.538Z,10.88
2022-11-06T08:07:13.688Z,12
2022-11-06T08:08:14.123Z,11.92
2022-11-06T08:09:13.990Z,11.679999
2022-11-06T08:10:14.093Z,12.32
2022-11-06T08:11:14.243Z,11.28
2022-11-06T08:12:14.402Z,10.719999
2022-11-06T08:13:14.558Z,11.04
2022-11-06T08:14:14.703Z,10.4
2022-11-06T08:15:14.846Z,10.32
2022-11-06T08:16:14.941Z,10.8
2022-11-06T08:17:15.051Z,12.24
2022-11-06T08:18:15.557Z,11.92
2022-11-06T08:19:15.354Z,11.04
2022-11-06T08:20:15.505Z,11.2
2022-11-06T08:21:15.661Z,11.44
2022-11-06T08:22:15.763Z,11.92
2022-11-06T08:23:15.911Z,11.28
2022-11-06T08:24:20.722Z,11.04
2022-11-06T08:25:16.216Z,11.52
2022-11-06T08:26:16.368Z,10.639999
2022-11-06T08:27:16.521Z,10.8
2022-11-06T08:28:16.790Z,11.84
2022-11-06T08:29:16.824Z,11.679999
2022-11-06T08:30:16.978Z,11.92
2022-11-06T08:31:17.115Z,12.32
2022-11-06T08:32:17.280Z,12.24
2022-11-06T08:33:17.434Z,11.599999
2022-11-06T08:34:17.532Z,11.92
2022-11-06T08:35:17.697Z,12.639999
2022-11-06T08:36:17.831Z,12.48
2022-11-06T08:37:17.984Z,13.599999
2022-11-06T08:38:18.396Z,11.599999
2022-11-06T08:39:18.289Z,12.08
2022-11-06T08:40:18.442Z,11.679999
2022-11-06T08:41:18.551Z,12.4
2022-11-06T08:42:18.661Z,11.84
2022-11-06T08:43:18.803Z,11.28
2022-11-06T08:44:18.903Z,11.2
2022-11-06T08:45:19.045Z,11.44
2022-11-06T08:46:19.184Z,11.04
2022-11-06T08:47:19.365Z,11.04
2022-11-06T08:48:19.510Z,12.4
2022-11-06T08:49:19.659Z,12.719999
2022-11-06T08:50:19.814Z,12
2022-11-06T08:51:19.974Z,12.4
2022-11-06T08:52:20.109Z,12.08
2022-11-06T08:53:20.255Z,11.2
2022-11-06T08:54:20.357Z,11.28
2022-11-06T08:55:20.518Z,11.52
2022-11-06T08:56:20.676Z,10.88
2022-11-06T08:57:20.771Z,13.679999
2022-11-06T08:58:20.939Z,14.32
2022-11-06T08:59:21.074Z,12.48
2022-11-06T09:00:21.227Z,11.679999
2022-11-06T09:01:21.506Z,11.599999
2022-11-06T09:02:21.533Z,11.84
2022-11-06T09:03:21.637Z,12.639999
2022-11-06T09:04:21.781Z,12
2022-11-06T09:05:21.927Z,12
2022-11-06T09:06:22.081Z,11.2
2022-11-06T09:07:22.237Z,12.24
2022-11-06T09:08:22.390Z,11.52
2022-11-06T09:09:22.538Z,12.88
2022-11-06T09:10:22.685Z,12
2022-11-06T09:11:22.839Z,11.599999
2022-11-06T09:12:23.028Z,11.28
2022-11-06T09:13:23.155Z,12.24
2022-11-06T09:14:23.301Z,12
2022-11-06T09:15:23.446Z,12
2022-11-06T09:16:23.585Z,12
2022-11-06T09:17:23.774Z,12.639999
2022-11-06T09:18:23.891Z,12.48
2022-11-06T09:19:24.006Z,11.92
2022-11-06T09:20:24.156Z,12
2022-11-06T09:21:24.308Z,12.4
2022-11-06T09:22:24.460Z,13.04
2022-11-06T09:23:24.607Z,13.2
2022-11-06T09:24:43.520Z,12.719999
2022-11-06T09:25:24.864Z,12.4
2022-11-06T09:26:25.013Z,11.92
2022-11-06T09:27:25.176Z,12.08
2022-11-06T09:28:25.317Z,12.88
2022-11-06T09:29:25.480Z,12.719999
2022-11-06T09:30:25.668Z,12.4
2022-11-06T09:31:25.760Z,12.24
2022-11-06T09:32:25.932Z,12.48
2022-11-06T09:33:26.079Z,12.32
2022-11-06T09:34:26.224Z,11.679999
2022-11-06T09:35:26.386Z,12.24
2022-11-06T09:36:26.538Z,12.4
2022-11-06T09:37:26.677Z,12.48
2022-11-06T09:38:26.836Z,11.92
2022-11-06T09:39:26.982Z,13.679999
2022-11-06T09:40:27.167Z,12.639999
2022-11-06T09:41:27.288Z,13.84
2022-11-06T09:42:27.449Z,13.2
2022-11-06T09:43:50.601Z,14.799999
2022-11-06T09:44:27.744Z,14.719999
2022-11-06T09:45:27.908Z,13.84
2022-11-06T09:46:28.034Z,14.639999
2022-11-06T09:47:28.202Z,13.44
2022-11-06T09:48:28.348Z,12.88
2022-11-06T09:49:28.501Z,13.12
2022-11-06T09:50:28.604Z,13.52
2022-11-06T09:51:28.754Z,14.4
2022-11-06T09:52:28.909Z,13.44
2022-11-06T09:53:29.056Z,14.32
2022-11-06T09:54:29.213Z,14.08
2022-11-06T09:55:29.367Z,14
2022-11-06T09:56:29.466Z,13.12
2022-11-06T09:57:29.622Z,13.2
2022-11-06T09:58:29.770Z,13.599999
2022-11-06T09:59:29.870Z,14.08
2022-11-06T10:00:30.019Z,13.44
2022-11-06T10:01:30.241Z,13.2
2022-11-06T10:02:30.397Z,14.48
2022-11-06T10:03:30.475Z,14.08
2022-11-06T10:04:30.621Z,14.4
2022-11-06T10:05:30.731Z,14.639999
2022-11-06T10:06:30.877Z,14.4
2022-11-06T10:07:31.037Z,14.799999
2022-11-06T10:08:31.194Z,15.839999
2022-11-06T10:09:31.344Z,15.44
2022-11-06T10:10:31.487Z,14.88
2022-11-06T10:11:31.631Z,14.32
2022-11-06T10:12:31.745Z,12.799999
2022-11-06T10:13:31.889Z,13.44
2022-11-06T10:14:32.037Z,13.52
2022-11-06T10:15:32.200Z,13.2
2022-11-06T10:16:32.332Z,13.28
2022-11-06T10:17:32.500Z,13.2
2022-11-06T10:18:32.612Z,13.2
2022-11-06T10:19:32.752Z,13.28
2022-11-06T10:20:32.903Z,12.4
2022-11-06T10:21:33.054Z,12.719999
2022-11-06T10:22:33.201Z,12.799999
2022-11-06T10:23:33.359Z,12.88
2022-11-06T10:24:33.464Z,13.52
2022-11-06T10:25:33.615Z,13.28
2022-11-06T10:26:34.011Z,13.12
2022-11-06T10:27:33.920Z,13.44
2022-11-06T10:28:34.062Z,13.52
2022-11-06T10:29:34.227Z,13.04
2022-11-06T10:30:34.354Z,13.599999
2022-11-06T10:31:34.472Z,13.28
2022-11-06T10:32:34.631Z,13.2
2022-11-06T10:33:34.731Z,13.28
2022-11-06T10:34:34.866Z,13.679999
2022-11-06T10:35:35.092Z,13.599999
2022-11-06T10:36:35.160Z,13.92
2022-11-06T10:37:35.334Z,13.92
2022-11-06T10:38:35.437Z,13.28
2022-11-06T10:39:35.535Z,13.2
2022-11-06T10:40:35.679Z,13.12
2022-11-06T10:41:35.840Z,13.679999
2022-11-06T10:42:38.160Z,14.88
2022-11-06T10:43:36.134Z,14
2022-11-06T10:44:36.300Z,13.92
2022-11-06T10:45:36.422Z,13.12
2022-11-06T10:46:36.550Z,13.679999
2022-11-06T10:47:36.691Z,13.84
2022-11-06T10:48:41.052Z,13.2
2022-11-06T10:49:37.000Z,13.2
2022-11-06T10:50:37.149Z,13.92
2022-11-06T10:51:37.309Z,12.88
2022-11-06T10:52:37.464Z,13.12
2022-11-06T10:53:37.600Z,13.2
2022-11-06T10:54:37.762Z,13.599999
2022-11-06T10:55:37.909Z,13.44
2022-11-06T10:56:38.047Z,13.599999
2022-11-06T10:57:38.217Z,13.84
2022-11-06T10:58:38.365Z,14
2022-11-06T10:59:38.523Z,13.92
2022-11-06T11:00:38.661Z,13.52
2022-11-06T11:01:38.988Z,12.799999
2022-11-06T11:02:39.033Z,13.44
2022-11-06T11:03:39.118Z,13.599999
2022-11-06T11:04:39.322Z,13.28
2022-11-06T11:05:40.108Z,12.88
2022-11-06T11:06:39.963Z,13.84
2022-11-06T11:07:40.120Z,13.44
2022-11-06T11:08:40.320Z,13.28
2022-11-06T11:09:40.374Z,13.92
2022-11-06T11:10:40.521Z,13.84
2022-11-06T11:11:40.268Z,15.2
2022-11-06T11:12:40.420Z,14.08
2022-11-06T11:13:40.526Z,14.48
2022-11-06T11:14:41.321Z,14
2022-11-06T11:15:40.837Z,14.639999
2022-11-06T11:16:41.279Z,14.48
2022-11-06T11:17:41.428Z,15.599999
2022-11-06T11:18:41.624Z,14.88
2022-11-06T11:19:41.379Z,14.4
2022-11-06T11:20:41.497Z,14.08
2022-11-06T11:21:41.612Z,15.599999
2022-11-06T11:22:41.759Z,16
2022-11-06T11:23:41.947Z,15.52
2022-11-06T11:24:42.159Z,14.639999
2022-11-06T11:25:42.294Z,14.24
2022-11-06T11:26:42.520Z,14.48
2022-11-06T11:27:42.592Z,14.24
2022-11-06T11:28:42.726Z,14.48
2022-11-06T11:29:42.860Z,15.44
2022-11-06T11:30:42.998Z,14.719999
2022-11-06T11:31:43.114Z,14.799999
2022-11-06T11:32:43.269Z,16.72
2022-11-06T11:33:43.373Z,18
2022-11-06T11:34:47.719Z,17.92
2022-11-06T11:35:43.618Z,16.24
2022-11-06T11:36:43.755Z,17.44
2022-11-06T11:37:43.882Z,17.52
2022-11-06T11:38:44.097Z,16.24
2022-11-06T11:39:44.175Z,16.08
2022-11-06T11:40:44.317Z,15.04
2022-11-06T11:41:44.367Z,15.52
2022-11-06T11:42:44.535Z,16.64
2022-11-06T11:43:44.688Z,15.28
2022-11-06T11:44:44.837Z,14.719999
2022-11-06T11:45:44.974Z,14.08
2022-11-06T11:46:45.191Z,14.48
2022-11-06T11:47:45.289Z,16.32
2022-11-06T11:48:45.585Z,17.2
2022-11-06T11:49:45.733Z,15.599999
2022-11-06T11:50:45.844Z,15.599999
2022-11-06T11:51:45.996Z,16.8
2022-11-06T11:52:46.216Z,17.2
2022-11-06T11:53:46.347Z,17.44
2022-11-06T11:54:46.574Z,18.4
2022-11-06T11:55:46.679Z,18.4
2022-11-06T11:57:03.351Z,18.08
2022-11-06T11:57:47.048Z,15.599999
2022-11-06T11:58:47.158Z,15.28
2022-11-06T11:59:47.263Z,16.48
2022-11-06T12:00:47.397Z,16.64
2022-11-06T12:01:47.641Z,14.799999
2022-11-06T12:02:47.780Z,14.4
2022-11-06T12:03:47.869Z,14
2022-11-06T12:04:48.023Z,14.32
2022-11-06T12:05:48.164Z,14.48
2022-11-06T12:06:48.327Z,15.12
2022-11-06T12:07:48.468Z,14.48
2022-11-06T12:08:48.571Z,14.08
2022-11-06T12:09:48.720Z,14.639999
2022-11-06T12:10:48.894Z,15.12
2022-11-06T12:11:49.030Z,13.92
2022-11-06T12:12:49.181Z,13.84
2022-11-06T12:13:49.338Z,13.92
2022-11-06T12:14:49.479Z,14.08
2022-11-06T12:15:49.578Z,13.28
2022-11-06T12:16:49.739Z,13.2
2022-11-06T12:17:49.905Z,13.12
2022-11-06T12:18:52.416Z,12.48
2022-11-06T12:19:50.232Z,12.639999
2022-11-06T12:20:50.393Z,12.719999
2022-11-06T12:21:50.541Z,12.719999
2022-11-06T12:22:50.704Z,12.48
2022-11-06T12:23:50.821Z,12.24
2022-11-06T12:24:51.017Z,12.4
2022-11-06T12:25:51.100Z,12.24
2022-11-06T12:26:51.254Z,11.92
2022-11-06T12:27:51.356Z,11.84
2022-11-06T12:28:51.465Z,11.679999
2022-11-06T12:29:51.614Z,11.679999
2022-11-06T12:30:51.746Z,11.44
2022-11-06T12:31:51.909Z,11.44
2022-11-06T12:32:52.058Z,11.44
2022-11-06T12:34:06.012Z,11.84
2022-11-06T12:34:52.314Z,11.28
2022-11-06T12:35:52.466Z,11.599999
2022-11-06T12:36:52.625Z,11.44
2022-11-06T12:37:52.718Z,11.2
2022-11-06T12:38:52.958Z,11.28
2022-11-06T12:39:52.977Z,11.12
2022-11-06T12:40:53.074Z,11.44
2022-11-06T12:41:53.226Z,11.52
2022-11-06T12:42:53.379Z,11.2
2022-11-06T12:43:53.544Z,11.12
2022-11-06T12:44:53.672Z,11.28
2022-11-06T12:45:53.774Z,11.04
2022-11-06T12:46:53.932Z,11.12
2022-11-06T12:47:54.089Z,11.2
2022-11-06T12:48:54.226Z,11.52
2022-11-06T12:49:54.354Z,11.84
2022-11-06T12:50:54.484Z,11.44
2022-11-06T12:51:54.648Z,11.2
2022-11-06T12:52:54.793Z,11.52
2022-11-06T12:53:54.950Z,11.52
2022-11-06T12:54:55.102Z,11.2
2022-11-06T12:55:55.247Z,11.04
2022-11-06T12:56:55.398Z,10.8
2022-11-06T12:57:55.508Z,10.719999
2022-11-06T12:58:55.653Z,10.639999
2022-11-06T12:59:55.809Z,10.639999
2022-11-06T13:00:55.949Z,10.719999
2022-11-06T13:01:56.172Z,10.48
2022-11-06T13:02:56.193Z,10.639999
2022-11-06T13:03:56.362Z,10.639999
2022-11-06T13:04:56.537Z,10.48
2022-11-06T13:05:56.667Z,10.719999
2022-11-06T13:06:56.811Z,10.8
2022-11-06T13:07:56.965Z,10.639999
2022-11-06T13:08:57.118Z,10.48
2022-11-06T13:09:57.280Z,10.48